Hlavní strana
METAR-TAF:

METAR-TAF

Letiště :

Aigen im Ennstal, Rakousko

zeměpisná šířka: 47-32N, zeměpisná délka: 014-08E, výška: 638 m

METAR: chybějící

Čas: 11:13 (10:13 UTC)

Předpověď počasí

Zpráva byla vytvořena před 1 hodinou a 58 minutami, v 08:15 UTC
Předpověď platná od 18 v 09 UTC do 18 v 18 UTC
vítr z různých směrů 3 kt
Viditelnost 10 km a více
Polojasno ve výšce 28000 ft
Dočasný
od 18 v 12 UTC do 18 v 17 UTC
Severovýchodní vítr 7 kt

TAF: LOXA 180815Z 1809/1818 VRB03KT 9999 SCT280 TEMPO 1812/1817 04007KT

Stav a předpovědi počasí z více než 4 000 letišť (zprávy METAR a TAF).

Červené a žluté tečky na mapě představují dostupné meteorologické stanice.

Když kurzor umístíte na tečku, zobrazí se název stanice.

Pak kliknutím zobrazíte stav a předpověď počasí.

Chcete-li změnit mapu, kliknutím na zelené tlačítko se znaménkem +mapu přiblížíte, kliknutím na zelené tlačítko se znaménkem – mapu oddálíte a kliknutím na zelené šipky přejdete na sousední mapy.


METAR-TAF: